createdAt,value
2023-05-04T00:01:11.762Z,12.72
2023-05-04T00:03:40.859Z,12.76
2023-05-04T00:06:09.166Z,12.76
2023-05-04T00:08:37.315Z,12.48
2023-05-04T00:11:05.514Z,12.44
2023-05-04T00:13:33.712Z,12.55
2023-05-04T00:16:01.955Z,12.36
2023-05-04T00:18:30.178Z,12.38
2023-05-04T00:20:58.353Z,12.28
2023-05-04T00:23:26.588Z,12.28
2023-05-04T00:25:54.795Z,12.13
2023-05-04T00:28:22.915Z,12.14
2023-05-04T00:30:53.536Z,12.08
2023-05-04T00:33:22.338Z,12.11
2023-05-04T00:35:50.677Z,12.13
2023-05-04T00:38:19.496Z,12.22
2023-05-04T00:40:47.736Z,12.38
2023-05-04T00:43:16.187Z,12.35
2023-05-04T00:45:44.392Z,12.14
2023-05-04T00:48:12.605Z,12.20
2023-05-04T00:50:41.452Z,12.14
2023-05-04T00:53:11.705Z,12.23
2023-05-04T00:55:41.258Z,12.03
2023-05-04T00:58:11.819Z,12.10
2023-05-04T01:00:40.087Z,12.06
2023-05-04T01:03:10.000Z,12.01
2023-05-04T01:05:50.346Z,11.84
2023-05-04T01:08:30.393Z,12.05
2023-05-04T01:11:07.619Z,11.90
2023-05-04T01:13:36.271Z,12.11
2023-05-04T01:16:05.712Z,11.88
2023-05-04T01:18:33.939Z,11.71
2023-05-04T01:21:02.223Z,11.69
2023-05-04T01:23:30.553Z,11.77
2023-05-04T01:26:15.061Z,11.90
2023-05-04T01:28:51.046Z,11.92
2023-05-04T01:31:23.598Z,11.94
2023-05-04T01:33:54.863Z,11.79
2023-05-04T01:36:23.324Z,11.90
2023-05-04T01:38:56.234Z,11.87
2023-05-04T01:41:24.488Z,11.84
2023-05-04T01:43:54.366Z,11.84
2023-05-04T01:46:22.684Z,11.84
2023-05-04T01:48:51.169Z,11.99
2023-05-04T01:51:19.588Z,11.95
2023-05-04T01:53:47.911Z,12.08
2023-05-04T01:56:16.133Z,11.97
2023-05-04T01:58:44.203Z,11.96
2023-05-04T02:01:12.381Z,12.05
2023-05-04T02:03:41.251Z,11.91
2023-05-04T02:06:09.550Z,11.92
2023-05-04T02:08:36.851Z,11.64
2023-05-04T02:11:05.064Z,11.70
2023-05-04T02:13:33.250Z,11.69
2023-05-04T02:16:01.476Z,11.68
2023-05-04T02:18:28.761Z,11.70
2023-05-04T02:20:56.897Z,11.60
2023-05-04T02:23:25.090Z,11.61
2023-05-04T02:25:55.225Z,11.50
2023-05-04T02:28:22.557Z,11.56
2023-05-04T02:30:50.842Z,11.41
2023-05-04T02:33:19.105Z,11.47
2023-05-04T02:35:47.257Z,11.51
2023-05-04T02:38:15.469Z,11.44
2023-05-04T02:40:43.705Z,11.28
2023-05-04T02:43:11.004Z,11.39
2023-05-04T02:45:38.378Z,11.22
2023-05-04T02:48:06.769Z,11.20
2023-05-04T02:50:34.125Z,11.34
2023-05-04T02:53:02.363Z,11.27
2023-05-04T02:55:29.633Z,11.32
2023-05-04T02:57:56.898Z,11.39
2023-05-04T03:00:25.180Z,11.25
2023-05-04T03:02:53.935Z,11.28
2023-05-04T03:05:21.292Z,11.25
2023-05-04T03:07:50.749Z,11.23
2023-05-04T03:10:18.976Z,11.23
2023-05-04T03:12:46.539Z,11.11
2023-05-04T03:15:14.732Z,10.81
2023-05-04T03:17:42.061Z,10.82
2023-05-04T03:20:13.006Z,10.89
2023-05-04T03:22:41.210Z,10.73
2023-05-04T03:25:09.643Z,10.95
2023-05-04T03:27:37.900Z,10.69
2023-05-04T03:30:07.279Z,10.69
2023-05-04T03:32:35.676Z,10.74
2023-05-04T03:35:04.558Z,10.83
2023-05-04T03:37:32.741Z,10.82
2023-05-04T03:39:59.996Z,10.99
2023-05-04T03:42:27.528Z,10.89
2023-05-04T03:44:55.791Z,10.93
2023-05-04T03:47:24.052Z,10.92
2023-05-04T03:49:51.388Z,10.96
2023-05-04T03:52:18.662Z,10.97
2023-05-04T03:54:46.815Z,10.91
2023-05-04T03:57:14.970Z,11.03
2023-05-04T03:59:42.239Z,11.16
2023-05-04T04:02:09.575Z,11.17
2023-05-04T04:04:37.876Z,11.29
2023-05-04T04:07:05.261Z,11.38
2023-05-04T04:09:33.348Z,11.24
2023-05-04T04:12:02.416Z,11.69
2023-05-04T04:14:29.697Z,12.13
2023-05-04T04:16:57.720Z,13.47
2023-05-04T04:19:24.966Z,13.73
2023-05-04T04:21:52.224Z,12.89
2023-05-04T04:24:19.496Z,13.18
2023-05-04T04:26:47.126Z,13.64
2023-05-04T04:29:14.370Z,12.70
2023-05-04T04:31:43.432Z,12.57
2023-05-04T04:34:10.692Z,12.91
2023-05-04T04:36:40.468Z,12.74
2023-05-04T04:39:08.350Z,12.73
2023-05-04T04:41:37.558Z,12.75
2023-05-04T04:44:05.248Z,13.47
2023-05-04T04:46:36.043Z,17.90
2023-05-04T04:49:07.475Z,19.27
2023-05-04T04:51:36.837Z,17.22
2023-05-04T04:54:04.050Z,17.08
2023-05-04T04:56:34.876Z,16.46
2023-05-04T04:59:03.966Z,15.73
2023-05-04T05:01:33.660Z,15.72
2023-05-04T05:04:01.003Z,15.66
2023-05-04T05:06:28.233Z,17.07
2023-05-04T05:08:55.517Z,17.36
2023-05-04T05:11:22.750Z,15.79
2023-05-04T05:13:49.966Z,15.62
2023-05-04T05:16:17.363Z,17.50
2023-05-04T05:18:44.684Z,19.33
2023-05-04T05:21:11.893Z,17.72
2023-05-04T05:23:40.990Z,19.48
2023-05-04T05:26:08.186Z,18.02
2023-05-04T05:28:37.406Z,17.47
2023-05-04T05:31:07.317Z,18.30
2023-05-04T05:33:34.576Z,19.46
2023-05-04T05:36:04.340Z,18.68
2023-05-04T05:38:35.055Z,17.96
2023-05-04T05:41:04.329Z,16.31
2023-05-04T05:43:33.574Z,16.31
2023-05-04T05:46:02.701Z,16.53
2023-05-04T05:48:31.825Z,16.68
2023-05-04T05:51:00.952Z,16.63
2023-05-04T05:53:28.283Z,16.99
2023-05-04T05:55:55.563Z,16.61
2023-05-04T05:58:26.358Z,16.78
2023-05-04T06:00:53.536Z,16.50
2023-05-04T06:03:21.827Z,17.83
2023-05-04T06:05:49.149Z,18.65
2023-05-04T06:08:18.714Z,18.58
2023-05-04T06:10:46.104Z,18.10
2023-05-04T06:13:13.406Z,17.11
2023-05-04T06:15:40.747Z,16.72
2023-05-04T06:18:09.794Z,16.60
2023-05-04T06:20:37.066Z,16.01
2023-05-04T06:23:04.293Z,16.51
2023-05-04T06:25:35.205Z,16.42
2023-05-04T06:28:04.253Z,16.74
2023-05-04T06:30:33.480Z,16.49
2023-05-04T06:33:03.306Z,17.57
2023-05-04T06:35:30.606Z,17.87
2023-05-04T06:37:59.654Z,17.80
2023-05-04T06:40:28.741Z,20.23
2023-05-04T06:42:57.842Z,23.48
2023-05-04T06:45:26.960Z,23.57
2023-05-04T06:47:56.071Z,22.03
2023-05-04T06:50:24.173Z,20.42
2023-05-04T06:52:53.192Z,21.74
2023-05-04T06:55:22.144Z,20.72
2023-05-04T06:57:51.558Z,20.88
2023-05-04T07:00:20.866Z,20.32
2023-05-04T07:02:49.956Z,21.67
2023-05-04T07:05:19.185Z,21.32
2023-05-04T07:07:51.183Z,20.83
2023-05-04T07:10:20.509Z,20.42
2023-05-04T07:12:49.513Z,20.86
2023-05-04T07:15:18.605Z,21.39
2023-05-04T07:17:48.462Z,21.33
2023-05-04T07:20:16.758Z,21.89
2023-05-04T07:22:45.767Z,21.27
2023-05-04T07:25:14.812Z,21.01
2023-05-04T07:27:45.323Z,21.41
2023-05-04T07:30:14.764Z,21.41
2023-05-04T07:32:45.672Z,21.18
2023-05-04T07:35:15.346Z,21.45
2023-05-04T07:37:43.236Z,22.02
2023-05-04T07:40:14.879Z,21.21
2023-05-04T07:42:43.932Z,21.42
2023-05-04T07:45:12.104Z,21.38
2023-05-04T07:47:41.274Z,22.15
2023-05-04T07:50:09.688Z,22.09
2023-05-04T07:52:38.713Z,20.91
2023-05-04T07:55:07.966Z,21.72
2023-05-04T07:57:38.013Z,21.29
2023-05-04T08:00:09.041Z,21.78
2023-05-04T08:02:39.988Z,21.05
2023-05-04T08:05:08.747Z,21.64
2023-05-04T08:07:37.017Z,21.86
2023-05-04T08:10:05.765Z,21.90
2023-05-04T08:12:35.099Z,21.47
2023-05-04T08:15:04.994Z,21.35
2023-05-04T08:17:35.188Z,21.16
2023-05-04T08:20:03.220Z,20.94
2023-05-04T08:22:32.776Z,20.44
2023-05-04T08:25:02.122Z,20.44
2023-05-04T08:27:30.223Z,21.13
2023-05-04T08:29:59.272Z,21.84
2023-05-04T08:32:28.402Z,21.78
2023-05-04T08:34:56.534Z,21.69
2023-05-04T08:37:25.618Z,21.72
2023-05-04T08:39:53.702Z,21.25
2023-05-04T08:42:33.181Z,21.74
2023-05-04T08:45:02.590Z,21.84
2023-05-04T08:47:31.781Z,21.68
2023-05-04T08:50:00.020Z,22.64
2023-05-04T08:52:28.716Z,22.29
2023-05-04T08:54:57.793Z,23.16
2023-05-04T08:57:27.533Z,22.46
2023-05-04T08:59:56.379Z,22.60
2023-05-04T09:02:25.146Z,22.31
2023-05-04T09:04:54.676Z,21.89
2023-05-04T09:07:23.061Z,22.35
2023-05-04T09:09:52.071Z,21.61
2023-05-04T09:12:21.070Z,22.23
2023-05-04T09:14:50.170Z,22.35
2023-05-04T09:17:29.938Z,21.83
2023-05-04T09:20:04.171Z,22.11
2023-05-04T09:22:33.728Z,20.95
2023-05-04T09:25:20.784Z,21.73
2023-05-04T09:27:56.605Z,21.68
2023-05-04T09:30:24.745Z,21.31
2023-05-04T09:32:53.313Z,21.21
2023-05-04T09:35:33.768Z,20.60
2023-05-04T09:38:02.413Z,21.72
2023-05-04T09:40:43.217Z,22.97
2023-05-04T09:43:11.250Z,22.09
2023-05-04T09:45:47.463Z,22.84
2023-05-04T09:48:21.145Z,21.92
2023-05-04T09:51:02.788Z,22.53
2023-05-04T09:53:31.842Z,22.71
2023-05-04T09:56:22.375Z,23.12
2023-05-04T09:58:57.943Z,23.41
2023-05-04T10:01:30.337Z,22.32
2023-05-04T10:03:59.210Z,22.43
2023-05-04T10:06:30.572Z,22.23
2023-05-04T10:09:00.934Z,21.82
2023-05-04T10:11:29.215Z,21.44
2023-05-04T10:13:57.610Z,21.24
2023-05-04T10:16:50.560Z,22.98
2023-05-04T10:20:04.228Z,23.12
2023-05-04T10:23:00.996Z,22.06
2023-05-04T10:25:44.782Z,21.63
2023-05-04T10:28:15.686Z,21.77
2023-05-04T10:30:45.140Z,21.74
2023-05-04T10:33:13.511Z,21.42
2023-05-04T10:35:55.181Z,22.22
2023-05-04T10:38:37.090Z,21.39
2023-05-04T10:41:18.852Z,21.55
2023-05-04T10:43:53.315Z,21.88
2023-05-04T10:46:23.598Z,23.34
2023-05-04T10:48:51.804Z,23.67
2023-05-04T10:51:35.790Z,23.63
2023-05-04T10:54:21.695Z,22.91
2023-05-04T10:56:49.764Z,22.16
2023-05-04T10:59:17.685Z,22.24
2023-05-04T11:01:46.022Z,21.85
2023-05-04T11:04:23.185Z,21.39
2023-05-04T11:07:03.216Z,21.07
2023-05-04T11:09:42.519Z,21.08
2023-05-04T11:12:13.585Z,21.11
2023-05-04T11:14:43.428Z,21.05
2023-05-04T11:19:49.933Z,20.93
2023-05-04T11:22:20.379Z,20.80
2023-05-04T11:24:49.782Z,21.07
2023-05-04T11:27:29.871Z,20.77
2023-05-04T11:30:04.585Z,20.64
2023-05-04T11:32:46.854Z,20.96
2023-05-04T11:35:20.585Z,20.91
2023-05-04T11:37:49.822Z,21.30
2023-05-04T11:40:24.638Z,21.11
2023-05-04T11:42:56.882Z,21.61
2023-05-04T11:45:32.953Z,21.72
2023-05-04T11:48:02.658Z,21.73
2023-05-04T11:50:31.812Z,21.88
2023-05-04T11:53:13.948Z,22.00
2023-05-04T11:55:42.430Z,21.77
2023-05-04T11:58:12.202Z,21.57
2023-05-04T12:00:43.984Z,21.15
2023-05-04T12:03:25.983Z,20.84
2023-05-04T12:05:59.506Z,21.50
2023-05-04T12:08:42.069Z,21.13
2023-05-04T12:11:25.356Z,21.45
2023-05-04T12:14:11.313Z,21.31
2023-05-04T12:16:40.173Z,21.00
2023-05-04T12:19:15.360Z,21.21
2023-05-04T12:21:54.693Z,21.29
2023-05-04T12:24:24.380Z,21.40
2023-05-04T12:26:52.481Z,21.76
2023-05-04T12:29:20.492Z,21.57
2023-05-04T12:31:49.618Z,21.75
2023-05-04T12:34:17.656Z,21.54
2023-05-04T12:36:46.516Z,21.88
2023-05-04T12:39:14.709Z,21.26
2023-05-04T12:41:42.647Z,21.43
2023-05-04T12:44:11.883Z,21.29
2023-05-04T12:46:40.062Z,21.55
2023-05-04T12:49:08.142Z,21.27
2023-05-04T12:51:36.144Z,21.23
2023-05-04T12:54:04.164Z,21.62
2023-05-04T12:56:33.878Z,21.61
2023-05-04T12:59:01.909Z,21.26
2023-05-04T13:01:29.966Z,21.44
2023-05-04T13:03:58.109Z,21.30
2023-05-04T13:06:26.065Z,21.14
2023-05-04T13:08:54.097Z,21.24
2023-05-04T13:11:22.152Z,21.47
2023-05-04T13:13:50.214Z,21.68
2023-05-04T13:16:18.374Z,21.60
2023-05-04T13:18:46.413Z,21.90
2023-05-04T13:21:14.651Z,21.98
2023-05-04T13:23:42.899Z,21.76
2023-05-04T13:26:10.928Z,22.12
2023-05-04T13:28:39.350Z,22.27
2023-05-04T13:31:08.975Z,22.41
2023-05-04T13:33:40.368Z,22.86
2023-05-04T13:36:09.598Z,22.83
2023-05-04T13:38:38.643Z,21.98
2023-05-04T13:41:09.579Z,21.58
2023-05-04T13:43:37.759Z,21.78
2023-05-04T13:46:10.675Z,21.55
2023-05-04T13:48:39.598Z,21.81
2023-05-04T13:51:09.940Z,21.96
2023-05-04T13:53:40.121Z,21.61
2023-05-04T13:56:08.259Z,21.62
2023-05-04T13:58:36.209Z,22.10
2023-05-04T14:01:04.288Z,21.95
2023-05-04T14:03:33.185Z,22.38
2023-05-04T14:06:01.119Z,22.52
2023-05-04T14:08:30.138Z,22.80
2023-05-04T14:10:58.897Z,22.94
2023-05-04T14:13:26.896Z,22.92
2023-05-04T14:15:54.927Z,22.87
2023-05-04T14:18:22.901Z,22.34
2023-05-04T14:20:50.903Z,22.94
2023-05-04T14:23:18.856Z,22.93
2023-05-04T14:25:57.229Z,22.55
2023-05-04T14:28:25.180Z,22.90
2023-05-04T14:30:53.316Z,22.89
2023-05-04T14:33:22.236Z,23.08
2023-05-04T14:35:51.198Z,22.38
2023-05-04T14:38:19.299Z,21.91
2023-05-04T14:40:49.518Z,21.72
2023-05-04T14:43:17.893Z,21.52
2023-05-04T14:45:46.043Z,21.78
2023-05-04T14:48:14.133Z,21.69
2023-05-04T14:50:43.833Z,21.66
2023-05-04T14:53:11.976Z,21.78
2023-05-04T14:55:42.198Z,21.56
2023-05-04T14:58:10.465Z,21.72
2023-05-04T15:00:38.822Z,21.59
2023-05-04T15:03:07.654Z,21.69
2023-05-04T15:05:35.736Z,21.63
2023-05-04T15:08:05.331Z,21.25
2023-05-04T15:10:34.459Z,21.72
2023-05-04T15:13:03.534Z,22.20
2023-05-04T15:15:31.611Z,21.90
2023-05-04T15:17:59.711Z,21.73
2023-05-04T15:20:27.840Z,21.82
2023-05-04T15:22:55.837Z,22.16
2023-05-04T15:25:25.252Z,22.64
2023-05-04T15:27:54.311Z,22.19
2023-05-04T15:30:23.650Z,22.52
2023-05-04T15:32:53.008Z,22.43
2023-05-04T15:35:21.353Z,22.51
2023-05-04T15:37:50.342Z,22.69
2023-05-04T15:40:18.278Z,22.73
2023-05-04T15:42:46.269Z,22.34
2023-05-04T15:45:15.360Z,22.01
2023-05-04T15:47:43.620Z,22.27
2023-05-04T15:50:12.358Z,22.07
2023-05-04T15:52:41.248Z,21.42
2023-05-04T15:55:24.742Z,21.49
2023-05-04T15:57:54.312Z,21.59
2023-05-04T16:00:22.579Z,21.74
2023-05-04T16:02:50.728Z,21.87
2023-05-04T16:05:19.117Z,21.94
2023-05-04T16:07:47.373Z,21.65
2023-05-04T16:10:15.601Z,21.42
2023-05-04T16:15:14.668Z,21.01
2023-05-04T16:17:42.806Z,20.96
2023-05-04T16:20:11.983Z,20.93
2023-05-04T16:22:40.147Z,20.82
2023-05-04T16:25:10.296Z,20.76
2023-05-04T16:27:40.290Z,20.74
2023-05-04T16:30:10.104Z,20.65
2023-05-04T16:32:38.700Z,20.32
2023-05-04T16:35:08.442Z,20.33
2023-05-04T16:37:38.183Z,20.27
2023-05-04T16:40:16.138Z,20.12
2023-05-04T16:42:45.891Z,19.90
2023-05-04T16:45:14.565Z,20.11
2023-05-04T16:47:46.604Z,19.86
2023-05-04T16:50:14.877Z,19.65
2023-05-04T16:52:43.075Z,19.42
2023-05-04T16:55:12.422Z,19.57
2023-05-04T16:57:41.305Z,19.68
2023-05-04T17:00:10.585Z,19.38
2023-05-04T17:02:38.142Z,19.37
2023-05-04T17:05:07.013Z,19.69
2023-05-04T17:07:35.202Z,19.57
2023-05-04T17:10:04.377Z,19.65
2023-05-04T17:12:31.765Z,19.52
2023-05-04T17:14:59.935Z,19.38
2023-05-04T17:17:28.127Z,19.29
2023-05-04T17:19:55.544Z,19.37
2023-05-04T17:22:25.481Z,19.14
2023-05-04T17:24:53.570Z,18.88
2023-05-04T17:27:21.717Z,18.74
2023-05-04T17:29:49.761Z,18.71
2023-05-04T17:32:18.171Z,18.45
2023-05-04T17:34:45.605Z,18.59
2023-05-04T17:37:13.776Z,18.18
2023-05-04T17:39:41.923Z,18.11
2023-05-04T17:42:11.134Z,18.25
2023-05-04T17:44:39.312Z,18.31
2023-05-04T17:47:08.025Z,18.17
2023-05-04T17:49:36.130Z,18.42
2023-05-04T17:52:04.483Z,18.49
2023-05-04T17:54:32.762Z,18.67
2023-05-04T17:57:00.896Z,18.59
2023-05-04T17:59:28.893Z,18.54
2023-05-04T18:01:57.313Z,18.41
2023-05-04T18:04:25.792Z,18.33
2023-05-04T18:06:54.070Z,18.29
2023-05-04T18:09:21.348Z,17.82
2023-05-04T18:11:48.593Z,17.80
2023-05-04T18:14:16.758Z,17.39
2023-05-04T18:16:45.024Z,17.52
2023-05-04T18:19:13.101Z,17.32
2023-05-04T18:21:41.283Z,17.30
2023-05-04T18:24:10.100Z,17.22
2023-05-04T18:26:38.264Z,17.25
2023-05-04T18:29:17.927Z,17.15
2023-05-04T18:31:46.535Z,17.29
2023-05-04T18:34:14.747Z,16.97
2023-05-04T18:36:42.858Z,16.85
2023-05-04T18:39:10.133Z,17.27
2023-05-04T18:41:38.442Z,17.12
2023-05-04T18:44:06.035Z,17.18
2023-05-04T18:46:34.179Z,16.91
2023-05-04T18:49:02.308Z,16.95
2023-05-04T18:51:31.291Z,16.88
2023-05-04T18:53:58.558Z,17.04
2023-05-04T18:56:26.170Z,17.09
2023-05-04T18:58:54.477Z,17.33
2023-05-04T19:01:22.636Z,17.25
2023-05-04T19:03:51.169Z,17.27
2023-05-04T19:06:19.389Z,17.39
2023-05-04T19:08:47.393Z,17.39
2023-05-04T19:11:15.893Z,17.59
2023-05-04T19:13:43.127Z,17.63
2023-05-04T19:16:14.016Z,17.63
2023-05-04T19:18:43.989Z,17.72
2023-05-04T19:21:11.275Z,17.74
2023-05-04T19:23:38.592Z,17.62
2023-05-04T19:26:06.897Z,17.47
2023-05-04T19:28:35.573Z,17.48
2023-05-04T19:31:02.939Z,17.61
2023-05-04T19:33:44.355Z,17.62
2023-05-04T19:36:14.908Z,17.75
2023-05-04T19:38:43.230Z,17.72
2023-05-04T19:41:10.521Z,17.57
2023-05-04T19:43:39.055Z,17.55
2023-05-04T19:46:06.914Z,17.60
2023-05-04T19:48:34.924Z,17.43
2023-05-04T19:51:03.044Z,17.40
2023-05-04T19:53:31.365Z,17.36
2023-05-04T19:55:58.952Z,17.25
2023-05-04T19:58:26.580Z,17.20
2023-05-04T20:00:54.122Z,17.00
2023-05-04T20:03:21.464Z,16.91
2023-05-04T20:05:53.553Z,16.94
2023-05-04T20:08:20.789Z,16.79
2023-05-04T20:10:48.069Z,16.65
2023-05-04T20:13:15.382Z,16.72
2023-05-04T20:15:42.915Z,16.58
2023-05-04T20:18:10.301Z,16.50
2023-05-04T20:20:37.508Z,16.44
2023-05-04T20:23:06.516Z,16.35
2023-05-04T20:25:33.852Z,16.30
2023-05-04T20:28:01.088Z,16.12
2023-05-04T20:30:30.339Z,16.06
2023-05-04T20:32:59.379Z,15.53
2023-05-04T20:35:30.239Z,15.79
2023-05-04T20:37:59.550Z,15.65
2023-05-04T20:40:29.197Z,15.62
2023-05-04T20:42:58.264Z,15.48
2023-05-04T20:45:25.649Z,15.46
2023-05-04T20:47:55.140Z,15.27
2023-05-04T20:50:22.650Z,15.07
2023-05-04T20:52:50.194Z,14.87
2023-05-04T20:55:18.050Z,15.04
2023-05-04T20:57:45.530Z,14.57
2023-05-04T21:00:13.914Z,14.84
2023-05-04T21:02:41.887Z,14.47
2023-05-04T21:05:09.299Z,14.15
2023-05-04T21:07:36.616Z,14.20
2023-05-04T21:10:04.126Z,14.10
2023-05-04T21:12:31.621Z,14.07
2023-05-04T21:14:58.911Z,13.97
2023-05-04T21:17:26.274Z,13.96
2023-05-04T21:19:53.553Z,13.96
2023-05-04T21:22:21.807Z,13.68
2023-05-04T21:24:49.893Z,13.62
2023-05-04T21:27:20.671Z,13.52
2023-05-04T21:29:48.731Z,13.63
2023-05-04T21:32:17.837Z,13.64
2023-05-04T21:34:50.080Z,13.42
2023-05-04T21:37:18.173Z,13.31
2023-05-04T21:39:46.703Z,13.32
2023-05-04T21:42:13.923Z,13.38
2023-05-04T21:44:43.121Z,13.15
2023-05-04T21:47:11.233Z,13.05
2023-05-04T21:49:38.705Z,13.09
2023-05-04T21:52:06.763Z,13.03
2023-05-04T21:54:34.873Z,13.01
2023-05-04T21:57:02.250Z,12.81
2023-05-04T21:59:30.022Z,12.95
2023-05-04T22:01:58.109Z,12.90
2023-05-04T22:04:25.409Z,12.86
2023-05-04T22:06:53.827Z,12.54
2023-05-04T22:09:21.179Z,12.62
2023-05-04T22:11:49.715Z,12.44
2023-05-04T22:14:18.698Z,12.54
2023-05-04T22:16:46.973Z,12.60
2023-05-04T22:19:16.046Z,12.71
2023-05-04T22:21:43.333Z,12.71
2023-05-04T22:24:11.606Z,12.61
2023-05-04T22:26:40.056Z,12.49
2023-05-04T22:29:09.252Z,12.60
2023-05-04T22:31:37.363Z,12.64
2023-05-04T22:34:04.682Z,12.91
2023-05-04T22:36:32.114Z,12.60
2023-05-04T22:39:02.882Z,12.26
2023-05-04T22:41:31.020Z,12.58
2023-05-04T22:43:59.017Z,12.33
2023-05-04T22:46:26.451Z,12.40
2023-05-04T22:48:53.763Z,12.30
2023-05-04T22:51:22.902Z,12.37
2023-05-04T22:53:51.258Z,12.51
2023-05-04T22:56:19.294Z,12.34
2023-05-04T22:58:46.813Z,12.28
2023-05-04T23:01:14.045Z,12.49
2023-05-04T23:03:41.489Z,12.49
2023-05-04T23:06:10.693Z,12.48
2023-05-04T23:08:38.909Z,12.13
2023-05-04T23:11:06.224Z,12.27
2023-05-04T23:13:34.346Z,12.14
2023-05-04T23:16:02.810Z,12.10
2023-05-04T23:18:33.194Z,12.14
2023-05-04T23:21:00.649Z,11.92
2023-05-04T23:23:29.876Z,11.94
2023-05-04T23:25:58.975Z,11.87
2023-05-04T23:28:28.015Z,11.80
2023-05-04T23:30:55.888Z,11.80
2023-05-04T23:33:25.013Z,11.74
2023-05-04T23:35:58.296Z,11.76
2023-05-04T23:38:25.700Z,11.57
2023-05-04T23:40:54.022Z,11.53
2023-05-04T23:43:24.112Z,11.51
2023-05-04T23:46:03.742Z,11.55
2023-05-04T23:48:32.599Z,11.33
2023-05-04T23:51:06.648Z,11.50
2023-05-04T23:53:35.494Z,11.37
2023-05-04T23:56:06.390Z,11.12
2023-05-04T23:58:35.718Z,11.08
